Ushuaia, Argentina
Current Conditions -  °F | °C
As of 4:00 PM on Tuesday 21 Oct 2014 (Local Time) from SAWH Reporting Station
Scattered Clouds Scattered Clouds  
Wind Chill: 52°   Ceiling: Unl
Heat Index: 52°   Visibility: 6mi
Dew Point: 34°   Wind: 16mph
Humidity: 50%   Direction: 270°W
Pressure: 29.32"   Gusts: NA
Location:  54.79°S, 68.31°W
Report Text: SAWH 211900Z 27014KT 9999 SCT040 SCT10011/01 Q0993
Loading
Personal Weather Stations






























Interactive Weather Map
Tropical Storm Tracking
New forecast layout! Learn more

10-Day Weather Forecast

Advertisements
Track Severe Weather on mobile